createdAt,value
2023-03-26T00:00:02.797Z,0.70
2023-03-26T00:00:13.841Z,0.80
2023-03-26T00:00:24.816Z,0.70
2023-03-26T00:00:35.572Z,0.70
2023-03-26T00:00:46.614Z,0.60
2023-03-26T00:00:57.584Z,0.70
2023-03-26T00:01:08.347Z,0.70
2023-03-26T00:01:19.415Z,0.80
2023-03-26T00:01:30.369Z,0.80
2023-03-26T00:01:41.162Z,0.80
2023-03-26T00:01:52.218Z,0.80
2023-03-26T00:02:03.226Z,0.80
2023-03-26T00:02:14.012Z,0.90
2023-03-26T00:02:25.085Z,0.80
2023-03-26T00:02:36.102Z,0.80
2023-03-26T00:02:46.860Z,0.80
2023-03-26T00:02:57.955Z,0.70
2023-03-26T00:03:08.947Z,0.70
2023-03-26T00:03:19.678Z,0.60
2023-03-26T00:03:30.710Z,0.60
2023-03-26T00:03:41.681Z,0.70
2023-03-26T00:03:52.446Z,0.80
2023-03-26T00:04:03.490Z,0.90
2023-03-26T00:04:14.462Z,0.80
2023-03-26T00:04:25.217Z,0.90
2023-03-26T00:04:36.263Z,0.90
2023-03-26T00:04:47.229Z,0.80
2023-03-26T00:04:57.998Z,0.80
2023-03-26T00:05:09.102Z,0.90
2023-03-26T00:05:20.057Z,0.90
2023-03-26T00:05:30.872Z,0.80
2023-03-26T00:05:41.932Z,0.80
2023-03-26T00:05:53.041Z,0.80
2023-03-26T00:06:03.859Z,0.80
2023-03-26T00:06:14.891Z,0.70
2023-03-26T00:06:25.929Z,0.80
2023-03-26T00:06:36.650Z,0.80
2023-03-26T00:06:47.679Z,1.00
2023-03-26T00:06:58.643Z,0.80
2023-03-26T00:07:09.410Z,0.80
2023-03-26T00:07:20.452Z,0.80
2023-03-26T00:07:31.418Z,0.80
2023-03-26T00:07:42.188Z,1.00
2023-03-26T00:07:53.239Z,0.90
2023-03-26T00:08:04.200Z,1.00
2023-03-26T00:08:14.966Z,0.90
2023-03-26T00:08:26.042Z,1.10
2023-03-26T00:08:36.979Z,1.10
2023-03-26T00:08:47.742Z,0.70
2023-03-26T00:08:58.796Z,0.80
2023-03-26T00:09:09.752Z,0.80
2023-03-26T00:09:20.524Z,0.80
2023-03-26T00:09:31.574Z,0.80
2023-03-26T00:09:42.544Z,0.80
2023-03-26T00:09:53.303Z,0.70
2023-03-26T00:10:04.351Z,0.80
2023-03-26T00:10:15.320Z,0.80
2023-03-26T00:10:26.094Z,0.80
2023-03-26T00:10:37.129Z,0.90
2023-03-26T00:10:48.099Z,0.90
2023-03-26T00:11:00.955Z,0.70
2023-03-26T00:11:09.446Z,0.70
2023-03-26T00:11:20.467Z,0.70
2023-03-26T00:11:31.230Z,0.80
2023-03-26T00:11:42.279Z,0.90
2023-03-26T00:11:53.251Z,1.00
2023-03-26T00:12:04.020Z,1.10
2023-03-26T00:12:15.087Z,1.00
2023-03-26T00:12:26.034Z,0.90
2023-03-26T00:12:36.792Z,0.90
2023-03-26T00:12:47.842Z,1.00
2023-03-26T00:12:58.802Z,1.20
2023-03-26T00:13:09.567Z,1.20
2023-03-26T00:13:20.612Z,1.10
2023-03-26T00:13:31.576Z,1.20
2023-03-26T00:13:42.340Z,1.20
2023-03-26T00:13:53.480Z,1.30
2023-03-26T00:14:04.415Z,1.20
2023-03-26T00:14:15.180Z,1.30
2023-03-26T00:14:26.228Z,1.00
2023-03-26T00:14:37.197Z,1.10
2023-03-26T00:14:47.956Z,0.90
2023-03-26T00:14:59.000Z,1.00
2023-03-26T00:15:09.958Z,1.00
2023-03-26T00:15:20.726Z,1.00
2023-03-26T00:15:31.771Z,0.90
2023-03-26T00:15:42.742Z,0.90
2023-03-26T00:15:53.760Z,0.90
2023-03-26T00:16:04.429Z,0.90
2023-03-26T00:16:15.411Z,1.10
2023-03-26T00:16:26.216Z,1.00
2023-03-26T00:16:36.794Z,0.90
2023-03-26T00:16:47.879Z,0.70
2023-03-26T00:16:58.610Z,0.70
2023-03-26T00:17:09.660Z,0.70
2023-03-26T00:17:20.622Z,0.80
2023-03-26T00:17:31.407Z,0.80
2023-03-26T00:17:42.468Z,0.80
2023-03-26T00:17:53.470Z,0.80
2023-03-26T00:18:04.233Z,0.80
2023-03-26T00:18:15.265Z,0.70
2023-03-26T00:18:26.210Z,0.70
2023-03-26T00:18:36.988Z,0.70
2023-03-26T00:18:48.021Z,0.80
2023-03-26T00:18:58.988Z,0.80
2023-03-26T00:19:09.752Z,0.80
2023-03-26T00:19:20.803Z,0.80
2023-03-26T00:19:31.761Z,0.70
2023-03-26T00:19:42.534Z,0.80
2023-03-26T00:19:53.592Z,0.80
2023-03-26T00:20:04.554Z,0.80
2023-03-26T00:20:15.324Z,0.80
2023-03-26T00:20:26.370Z,1.00
2023-03-26T00:20:37.330Z,1.10
2023-03-26T00:20:48.106Z,1.00
2023-03-26T00:20:59.144Z,0.90
2023-03-26T00:21:10.108Z,0.90
2023-03-26T00:21:20.890Z,0.90
2023-03-26T00:21:31.933Z,0.90
2023-03-26T00:21:42.901Z,0.80
2023-03-26T00:21:53.678Z,0.80
2023-03-26T00:22:04.726Z,0.80
2023-03-26T00:22:15.681Z,0.80
2023-03-26T00:22:26.447Z,1.00
2023-03-26T00:22:37.494Z,1.00
2023-03-26T00:22:48.459Z,1.00
2023-03-26T00:22:59.225Z,0.80
2023-03-26T00:23:10.266Z,0.80
2023-03-26T00:23:21.233Z,0.70
2023-03-26T00:23:32.003Z,0.70
2023-03-26T00:23:43.042Z,0.80
2023-03-26T00:23:54.008Z,0.90
2023-03-26T00:24:04.835Z,0.80
2023-03-26T00:24:15.826Z,0.80
2023-03-26T00:24:26.790Z,0.70
2023-03-26T00:24:37.548Z,0.80
2023-03-26T00:24:48.595Z,0.70
2023-03-26T00:24:59.565Z,0.60
2023-03-26T00:25:10.324Z,0.70
2023-03-26T00:25:21.383Z,1.10
2023-03-26T00:25:32.339Z,1.20
2023-03-26T00:25:43.103Z,1.00
2023-03-26T00:25:54.391Z,0.90
2023-03-26T00:26:05.002Z,0.80
2023-03-26T00:26:15.768Z,0.80
2023-03-26T00:26:26.825Z,0.70
2023-03-26T00:26:37.826Z,0.90
2023-03-26T00:26:48.655Z,0.90
2023-03-26T00:26:59.202Z,1.00
2023-03-26T00:27:10.181Z,0.80
2023-03-26T00:27:20.940Z,0.90
2023-03-26T00:27:31.991Z,0.80
2023-03-26T00:27:42.954Z,0.70
2023-03-26T00:27:53.721Z,0.70
2023-03-26T00:28:04.764Z,0.70
2023-03-26T00:28:15.736Z,0.70
2023-03-26T00:28:26.493Z,0.80
2023-03-26T00:28:37.540Z,0.90
2023-03-26T00:28:48.509Z,0.90
2023-03-26T00:28:59.268Z,0.70
2023-03-26T00:29:10.318Z,0.60
2023-03-26T00:29:21.282Z,0.60
2023-03-26T00:29:32.055Z,0.60
2023-03-26T00:29:43.113Z,0.60
2023-03-26T00:29:54.068Z,0.80
2023-03-26T00:30:04.841Z,0.80
2023-03-26T00:30:15.882Z,0.80
2023-03-26T00:30:26.852Z,0.90
2023-03-26T00:30:37.637Z,1.00
2023-03-26T00:30:48.701Z,0.90
2023-03-26T00:30:59.695Z,0.80
2023-03-26T00:31:10.507Z,0.90
2023-03-26T00:31:21.041Z,1.00
2023-03-26T00:31:32.017Z,1.00
2023-03-26T00:31:42.781Z,1.00
2023-03-26T00:31:53.825Z,1.00
2023-03-26T00:32:04.792Z,0.90
2023-03-26T00:32:15.573Z,0.90
2023-03-26T00:32:26.639Z,0.80
2023-03-26T00:32:37.604Z,0.80
2023-03-26T00:32:53.496Z,0.80
2023-03-26T00:33:00.460Z,0.90
2023-03-26T00:33:10.339Z,1.10
2023-03-26T00:33:21.097Z,1.00
2023-03-26T00:33:32.125Z,0.90
2023-03-26T00:33:43.092Z,0.90
2023-03-26T00:33:53.854Z,1.10
2023-03-26T00:34:04.900Z,1.10
2023-03-26T00:34:16.028Z,1.00
2023-03-26T00:34:26.783Z,0.90
2023-03-26T00:34:37.824Z,0.80
2023-03-26T00:34:48.784Z,0.80
2023-03-26T00:34:59.545Z,0.80
2023-03-26T00:35:10.591Z,0.80
2023-03-26T00:35:21.557Z,0.90
2023-03-26T00:35:32.362Z,0.90
2023-03-26T00:35:43.411Z,0.90
2023-03-26T00:35:54.513Z,1.00
2023-03-26T00:36:05.393Z,1.00
2023-03-26T00:36:16.479Z,0.90
2023-03-26T00:36:27.457Z,0.90
2023-03-26T00:36:38.191Z,1.00
2023-03-26T00:36:49.262Z,0.90
2023-03-26T00:37:00.234Z,0.70
2023-03-26T00:37:10.995Z,0.80
2023-03-26T00:37:22.054Z,0.90
2023-03-26T00:37:33.020Z,0.80
2023-03-26T00:37:43.835Z,0.80
2023-03-26T00:37:54.882Z,0.70
2023-03-26T00:38:05.846Z,0.70
2023-03-26T00:38:16.632Z,0.80
2023-03-26T00:38:27.662Z,1.10
2023-03-26T00:38:38.626Z,1.00
2023-03-26T00:38:49.390Z,1.00
2023-03-26T00:39:00.439Z,0.70
2023-03-26T00:39:11.402Z,0.80
2023-03-26T00:39:22.170Z,0.90
2023-03-26T00:39:33.212Z,0.80
2023-03-26T00:39:44.183Z,0.80
2023-03-26T00:39:54.940Z,0.80
2023-03-26T00:40:07.008Z,0.80
2023-03-26T00:40:16.899Z,0.90
2023-03-26T00:40:27.670Z,0.80
2023-03-26T00:40:38.712Z,0.80
2023-03-26T00:40:49.680Z,0.80
2023-03-26T00:41:00.443Z,0.80
2023-03-26T00:41:11.502Z,0.80
2023-03-26T00:41:22.473Z,0.70
2023-03-26T00:41:33.235Z,0.90
2023-03-26T00:41:44.308Z,0.90
2023-03-26T00:41:55.257Z,1.20
2023-03-26T00:42:06.019Z,1.10
2023-03-26T00:42:17.062Z,1.00
2023-03-26T00:42:28.045Z,0.80
2023-03-26T00:42:38.802Z,0.90
2023-03-26T00:42:49.845Z,0.90
2023-03-26T00:43:00.811Z,0.80
2023-03-26T00:43:11.584Z,0.60
2023-03-26T00:43:22.640Z,0.70
2023-03-26T00:43:33.598Z,0.70
2023-03-26T00:43:44.364Z,0.80
2023-03-26T00:43:55.407Z,0.70
2023-03-26T00:44:06.379Z,0.70
2023-03-26T00:44:17.140Z,0.80
2023-03-26T00:44:28.191Z,0.80
2023-03-26T00:44:39.159Z,0.80
2023-03-26T00:44:49.917Z,0.80
2023-03-26T00:45:00.960Z,0.70
2023-03-26T00:45:11.929Z,0.80
2023-03-26T00:45:22.689Z,0.80
2023-03-26T00:45:33.736Z,0.70
2023-03-26T00:45:44.733Z,0.80
2023-03-26T00:45:55.701Z,0.80
2023-03-26T00:46:06.361Z,0.80
2023-03-26T00:46:17.605Z,0.50
2023-03-26T00:46:28.412Z,0.60
2023-03-26T00:46:39.456Z,0.70
2023-03-26T00:46:50.377Z,0.70
2023-03-26T00:47:01.163Z,0.70
2023-03-26T00:47:12.208Z,0.80
2023-03-26T00:47:23.171Z,0.80
2023-03-26T00:47:33.981Z,0.90
2023-03-26T00:47:45.018Z,0.80
2023-03-26T00:47:56.001Z,0.80
2023-03-26T00:48:06.780Z,0.70
2023-03-26T00:48:17.270Z,0.80
2023-03-26T00:48:41.835Z,0.90
2023-03-26T00:48:45.133Z,0.90
2023-03-26T00:48:51.174Z,1.00
2023-03-26T00:49:01.064Z,0.90
2023-03-26T00:49:11.833Z,0.80
2023-03-26T00:49:22.875Z,0.70
2023-03-26T00:49:33.852Z,0.60
2023-03-26T00:49:44.609Z,0.70
2023-03-26T00:49:55.658Z,0.80
2023-03-26T00:50:06.618Z,0.80
2023-03-26T00:50:17.380Z,1.00
2023-03-26T00:50:28.426Z,1.10
2023-03-26T00:50:39.394Z,1.10
2023-03-26T00:50:50.159Z,1.00
2023-03-26T00:51:01.215Z,0.90
2023-03-26T00:51:12.172Z,0.80
2023-03-26T00:51:22.938Z,0.80
2023-03-26T00:51:34.108Z,0.80
2023-03-26T00:51:44.587Z,0.90
2023-03-26T00:51:55.348Z,0.80
2023-03-26T00:52:06.406Z,0.90
2023-03-26T00:52:17.371Z,1.10
2023-03-26T00:52:28.138Z,1.10
2023-03-26T00:52:39.189Z,1.00
2023-03-26T00:52:50.157Z,0.80
2023-03-26T00:53:00.920Z,0.70
2023-03-26T00:53:11.963Z,0.70
2023-03-26T00:53:22.933Z,0.80
2023-03-26T00:53:33.692Z,0.80
2023-03-26T00:53:44.771Z,0.80
2023-03-26T00:53:55.708Z,0.70
2023-03-26T00:54:06.477Z,0.70
2023-03-26T00:54:17.519Z,0.80
2023-03-26T00:54:28.501Z,0.90
2023-03-26T00:54:39.253Z,0.80
2023-03-26T00:54:50.302Z,0.70
2023-03-26T00:55:01.260Z,0.70
2023-03-26T00:55:12.022Z,0.70
2023-03-26T00:55:23.067Z,0.70
2023-03-26T00:55:34.034Z,0.80
2023-03-26T00:55:44.814Z,0.80
2023-03-26T00:55:55.959Z,0.70
2023-03-26T00:56:06.912Z,0.60
2023-03-26T00:56:17.678Z,0.70
2023-03-26T00:56:28.222Z,0.80
2023-03-26T00:56:39.251Z,0.80
2023-03-26T00:56:50.020Z,0.80
2023-03-26T00:57:00.547Z,0.80
2023-03-26T00:57:11.529Z,0.80
2023-03-26T00:57:34.568Z,0.70
2023-03-26T00:57:36.276Z,0.70
2023-03-26T00:57:44.171Z,0.80
2023-03-26T00:57:54.927Z,0.90
2023-03-26T00:58:05.979Z,0.90
2023-03-26T00:58:16.943Z,0.90
2023-03-26T00:58:27.715Z,0.90
2023-03-26T00:58:38.758Z,0.80
2023-03-26T00:58:49.716Z,0.70
2023-03-26T00:59:00.482Z,0.60
2023-03-26T00:59:11.535Z,0.60
2023-03-26T00:59:22.489Z,0.80
2023-03-26T00:59:33.264Z,0.80
2023-03-26T00:59:44.305Z,0.80
2023-03-26T00:59:55.265Z,0.70
2023-03-26T01:00:06.030Z,0.60
2023-03-26T01:00:17.183Z,0.80
2023-03-26T01:00:28.082Z,1.00
2023-03-26T01:00:38.843Z,1.10
2023-03-26T01:00:49.888Z,1.00
2023-03-26T01:01:00.866Z,0.80
2023-03-26T01:01:11.656Z,0.90
2023-03-26T01:01:22.682Z,0.90
2023-03-26T01:01:33.699Z,0.80
2023-03-26T01:01:44.475Z,0.80
2023-03-26T01:01:55.508Z,0.80
2023-03-26T01:02:06.453Z,0.80
2023-03-26T01:02:17.293Z,0.80
2023-03-26T01:02:27.841Z,0.80
2023-03-26T01:02:38.853Z,0.90
2023-03-26T01:02:49.702Z,0.90
2023-03-26T01:03:00.265Z,0.90
2023-03-26T01:03:12.940Z,0.80
2023-03-26T01:03:26.939Z,0.80
2023-03-26T01:03:33.269Z,0.70
2023-03-26T01:03:50.344Z,0.70
2023-03-26T01:04:07.447Z,0.60
2023-03-26T01:04:09.149Z,0.70
2023-03-26T01:04:17.213Z,0.80
2023-03-26T01:04:28.605Z,0.80
2023-03-26T01:04:38.787Z,0.90
2023-03-26T01:04:49.358Z,0.90
2023-03-26T01:05:00.139Z,0.80
2023-03-26T01:05:11.221Z,0.80
2023-03-26T01:05:22.187Z,0.70
2023-03-26T01:05:32.901Z,0.60
2023-03-26T01:05:43.951Z,0.70
2023-03-26T01:05:55.101Z,0.70
2023-03-26T01:06:05.919Z,0.90
2023-03-26T01:06:16.959Z,0.90
2023-03-26T01:06:27.991Z,0.80
2023-03-26T01:06:38.726Z,0.80
2023-03-26T01:06:49.759Z,0.80
2023-03-26T01:07:00.722Z,0.80
2023-03-26T01:07:11.487Z,0.70
2023-03-26T01:07:22.541Z,0.70
2023-03-26T01:07:33.508Z,0.70
2023-03-26T01:07:44.274Z,0.80
2023-03-26T01:07:55.328Z,0.90
2023-03-26T01:08:06.313Z,1.00
2023-03-26T01:08:17.082Z,1.00
2023-03-26T01:08:28.129Z,0.80
2023-03-26T01:08:39.095Z,1.00
2023-03-26T01:08:49.860Z,1.00
2023-03-26T01:09:00.900Z,1.00
2023-03-26T01:09:11.869Z,0.80
2023-03-26T01:09:22.631Z,0.60
2023-03-26T01:09:33.685Z,0.70
2023-03-26T01:09:44.638Z,0.70
2023-03-26T01:09:55.402Z,0.80
2023-03-26T01:10:06.450Z,0.70
2023-03-26T01:10:17.415Z,0.90
2023-03-26T01:10:28.179Z,0.80
2023-03-26T01:10:39.224Z,0.90
2023-03-26T01:10:50.188Z,0.90
2023-03-26T01:11:00.954Z,0.90
2023-03-26T01:11:11.995Z,0.80
2023-03-26T01:11:22.960Z,0.80
2023-03-26T01:11:33.731Z,0.80
2023-03-26T01:11:44.763Z,0.80
2023-03-26T01:11:55.736Z,0.90
2023-03-26T01:12:06.505Z,0.90
2023-03-26T01:12:17.546Z,1.00
2023-03-26T01:12:28.516Z,1.00
2023-03-26T01:12:39.279Z,0.80
2023-03-26T01:12:50.324Z,0.90
2023-03-26T01:13:01.291Z,0.90
2023-03-26T01:13:12.055Z,1.10
2023-03-26T01:13:23.109Z,1.00
2023-03-26T01:13:34.070Z,1.00
2023-03-26T01:13:44.827Z,1.10
2023-03-26T01:13:55.876Z,0.80
2023-03-26T01:14:06.834Z,0.80
2023-03-26T01:14:17.607Z,0.50
2023-03-26T01:14:28.650Z,0.60
2023-03-26T01:14:39.613Z,0.60
2023-03-26T01:14:51.189Z,0.60
2023-03-26T01:15:01.370Z,0.70
2023-03-26T01:15:12.333Z,0.60
2023-03-26T01:15:23.115Z,0.70
2023-03-26T01:15:34.166Z,0.70
2023-03-26T01:15:45.146Z,0.90
2023-03-26T01:15:56.082Z,0.80
2023-03-26T01:16:06.757Z,0.80
2023-03-26T01:16:17.884Z,0.80
2023-03-26T01:16:28.620Z,0.80
2023-03-26T01:16:39.668Z,0.80
2023-03-26T01:16:50.630Z,0.80
2023-03-26T01:17:01.402Z,0.90
2023-03-26T01:17:12.478Z,0.90
2023-03-26T01:17:23.432Z,0.80
2023-03-26T01:17:34.329Z,0.70
2023-03-26T01:17:44.901Z,0.80
2023-03-26T01:17:55.880Z,0.80
2023-03-26T01:18:06.606Z,0.90
2023-03-26T01:18:17.653Z,0.70
2023-03-26T01:18:28.619Z,0.70
2023-03-26T01:18:39.402Z,0.80
2023-03-26T01:18:50.431Z,0.80
2023-03-26T01:19:01.402Z,0.80
2023-03-26T01:19:12.167Z,0.80
2023-03-26T01:19:23.209Z,0.80
2023-03-26T01:19:34.193Z,0.80
2023-03-26T01:19:45.126Z,0.70
2023-03-26T01:19:55.657Z,0.80
2023-03-26T01:20:06.629Z,0.70
2023-03-26T01:20:17.401Z,0.80
2023-03-26T01:20:28.442Z,0.80
2023-03-26T01:20:39.408Z,0.90
2023-03-26T01:20:50.180Z,0.80
2023-03-26T01:21:01.221Z,0.90
2023-03-26T01:21:12.185Z,0.90
2023-03-26T01:21:22.998Z,0.90
2023-03-26T01:21:34.006Z,0.80
2023-03-26T01:21:44.976Z,0.80
2023-03-26T01:21:55.736Z,0.70
2023-03-26T01:22:06.780Z,0.60
2023-03-26T01:22:17.746Z,0.60
2023-03-26T01:22:28.515Z,0.50
2023-03-26T01:22:39.570Z,0.70
2023-03-26T01:22:50.537Z,0.80
2023-03-26T01:23:01.298Z,1.00
2023-03-26T01:23:12.360Z,0.90
2023-03-26T01:23:23.383Z,0.90
2023-03-26T01:23:34.146Z,0.80
2023-03-26T01:23:45.192Z,0.80
2023-03-26T01:23:56.158Z,0.70
2023-03-26T01:24:06.921Z,0.80
2023-03-26T01:24:17.967Z,0.80
2023-03-26T01:24:28.953Z,0.70
2023-03-26T01:24:39.706Z,0.70
2023-03-26T01:24:50.739Z,0.80
2023-03-26T01:25:01.704Z,0.90
2023-03-26T01:25:12.488Z,0.90
2023-03-26T01:25:23.523Z,0.80
2023-03-26T01:25:34.484Z,0.80
2023-03-26T01:25:45.249Z,0.80
2023-03-26T01:25:56.572Z,0.80
2023-03-26T01:26:07.028Z,0.80
2023-03-26T01:26:17.809Z,0.90
2023-03-26T01:26:28.834Z,0.80
2023-03-26T01:26:39.822Z,0.70
2023-03-26T01:26:50.572Z,0.70
2023-03-26T01:27:01.615Z,0.90
2023-03-26T01:27:12.583Z,0.80
2023-03-26T01:27:23.348Z,0.90
2023-03-26T01:27:34.392Z,1.00
2023-03-26T01:27:45.367Z,0.90
2023-03-26T01:27:56.152Z,0.90
2023-03-26T01:28:07.177Z,0.80
2023-03-26T01:28:18.156Z,0.80
2023-03-26T01:28:28.928Z,0.80
2023-03-26T01:28:39.966Z,1.00
2023-03-26T01:28:50.928Z,0.90
2023-03-26T01:29:01.704Z,1.00
2023-03-26T01:29:12.737Z,0.80
2023-03-26T01:29:23.703Z,0.80
2023-03-26T01:29:34.471Z,0.80
2023-03-26T01:29:45.520Z,0.80
2023-03-26T01:29:56.501Z,0.80
2023-03-26T01:30:07.253Z,0.80
2023-03-26T01:30:18.313Z,0.70
2023-03-26T01:30:29.264Z,0.70
2023-03-26T01:30:40.027Z,0.70
2023-03-26T01:30:51.073Z,0.80
2023-03-26T01:31:02.070Z,0.90
2023-03-26T01:31:12.832Z,0.90
2023-03-26T01:31:23.879Z,0.80
2023-03-26T01:31:34.846Z,0.80
2023-03-26T01:31:45.604Z,0.90
2023-03-26T01:31:56.651Z,1.00
2023-03-26T01:32:07.618Z,0.80
2023-03-26T01:32:18.407Z,1.00
2023-03-26T01:32:29.586Z,1.00
2023-03-26T01:32:40.149Z,1.10
2023-03-26T01:32:51.056Z,0.80
2023-03-26T01:33:01.585Z,0.90
2023-03-26T01:33:12.633Z,0.90
2023-03-26T01:33:23.518Z,0.90
2023-03-26T01:33:34.215Z,0.90
2023-03-26T01:33:44.733Z,0.80
2023-03-26T01:33:55.567Z,0.70
2023-03-26T01:34:06.617Z,0.80
2023-03-26T01:34:17.573Z,0.80
2023-03-26T01:34:28.340Z,0.80
2023-03-26T01:34:39.382Z,0.70
2023-03-26T01:34:50.349Z,0.70
2023-03-26T01:35:01.109Z,0.70
2023-03-26T01:35:12.153Z,0.70
2023-03-26T01:35:23.199Z,0.60
2023-03-26T01:35:33.996Z,0.60
2023-03-26T01:35:45.090Z,0.70
2023-03-26T01:35:56.199Z,0.80
2023-03-26T01:36:07.094Z,0.70
2023-03-26T01:36:18.102Z,0.60
2023-03-26T01:36:29.070Z,0.70
2023-03-26T01:36:39.835Z,0.70
2023-03-26T01:36:50.891Z,0.70
2023-03-26T01:37:01.850Z,0.80
2023-03-26T01:37:12.624Z,0.80
2023-03-26T01:37:23.670Z,0.80
2023-03-26T01:37:34.629Z,0.80
2023-03-26T01:37:45.393Z,0.80
2023-03-26T01:37:56.447Z,0.90
2023-03-26T01:38:07.424Z,1.10
2023-03-26T01:38:18.192Z,1.00
2023-03-26T01:38:29.243Z,0.90
2023-03-26T01:38:40.214Z,0.90
2023-03-26T01:38:50.985Z,0.90
2023-03-26T01:39:02.040Z,0.90
2023-03-26T01:39:12.996Z,0.90
2023-03-26T01:39:23.754Z,1.00
2023-03-26T01:39:34.803Z,1.00
2023-03-26T01:39:45.766Z,0.80
2023-03-26T01:39:56.545Z,0.60
2023-03-26T01:40:07.579Z,0.70
2023-03-26T01:40:18.541Z,0.80
2023-03-26T01:40:29.304Z,0.80
2023-03-26T01:40:40.416Z,0.80
2023-03-26T01:40:51.327Z,0.60
2023-03-26T01:41:02.091Z,0.70
2023-03-26T01:41:13.142Z,0.70
2023-03-26T01:41:24.109Z,0.80
2023-03-26T01:41:34.890Z,0.80
2023-03-26T01:41:45.918Z,0.80
2023-03-26T01:41:56.886Z,0.80
2023-03-26T01:42:07.651Z,1.10
2023-03-26T01:42:18.697Z,1.10
2023-03-26T01:42:29.663Z,1.00
2023-03-26T01:42:40.425Z,0.90
2023-03-26T01:42:51.475Z,0.80
2023-03-26T01:43:02.449Z,0.90
2023-03-26T01:43:13.213Z,1.00
2023-03-26T01:43:24.270Z,1.00
2023-03-26T01:43:35.243Z,0.90
2023-03-26T01:43:46.005Z,0.80
2023-03-26T01:43:57.048Z,0.90
2023-03-26T01:44:08.016Z,1.00
2023-03-26T01:44:18.780Z,1.20
2023-03-26T01:44:29.823Z,1.00
2023-03-26T01:44:40.789Z,0.90
2023-03-26T01:44:51.559Z,0.80
2023-03-26T01:45:02.607Z,0.80
2023-03-26T01:45:13.570Z,0.80
2023-03-26T01:45:24.339Z,0.70
2023-03-26T01:45:35.395Z,0.70
2023-03-26T01:45:46.347Z,1.00
2023-03-26T01:45:57.169Z,1.10
2023-03-26T01:46:07.681Z,1.10
2023-03-26T01:46:18.649Z,0.90
2023-03-26T01:46:29.420Z,1.00
2023-03-26T01:46:40.513Z,1.10
2023-03-26T01:46:51.484Z,0.70
2023-03-26T01:47:02.216Z,0.80
2023-03-26T01:47:13.260Z,0.80
2023-03-26T01:47:24.262Z,1.20
2023-03-26T01:47:35.052Z,1.00
2023-03-26T01:47:46.086Z,0.90
2023-03-26T01:47:57.066Z,0.80
2023-03-26T01:48:07.806Z,0.90
2023-03-26T01:48:18.848Z,0.90
2023-03-26T01:48:29.815Z,0.70
2023-03-26T01:48:40.592Z,0.70
2023-03-26T01:48:51.649Z,0.80
2023-03-26T01:49:02.601Z,0.80
2023-03-26T01:49:13.705Z,0.90
2023-03-26T01:49:24.324Z,1.00
2023-03-26T01:49:35.292Z,1.00
2023-03-26T01:49:46.051Z,0.90
2023-03-26T01:49:57.091Z,1.00
2023-03-26T01:50:08.063Z,1.00
2023-03-26T01:50:18.829Z,1.10
2023-03-26T01:50:29.876Z,1.10
2023-03-26T01:50:40.836Z,0.80
2023-03-26T01:50:51.607Z,0.90
2023-03-26T01:51:02.657Z,0.90
2023-03-26T01:51:13.619Z,0.90
2023-03-26T01:51:24.386Z,0.80
2023-03-26T01:51:35.433Z,0.70
2023-03-26T01:51:46.393Z,0.80
2023-03-26T01:51:57.160Z,0.70
2023-03-26T01:52:08.202Z,0.80
2023-03-26T01:52:19.172Z,0.80
2023-03-26T01:52:29.933Z,0.90
2023-03-26T01:52:40.983Z,0.80
2023-03-26T01:52:51.943Z,0.90
2023-03-26T01:53:02.716Z,1.00
2023-03-26T01:53:13.764Z,1.00
2023-03-26T01:53:24.735Z,1.00
2023-03-26T01:53:35.509Z,0.90
2023-03-26T01:53:46.556Z,1.00
2023-03-26T01:53:57.531Z,1.00
2023-03-26T01:54:08.290Z,0.90
2023-03-26T01:54:19.340Z,0.80
2023-03-26T01:54:30.310Z,0.80
2023-03-26T01:54:41.069Z,0.90
2023-03-26T01:54:52.116Z,1.10
2023-03-26T01:55:03.087Z,1.00
2023-03-26T01:55:13.846Z,0.90
2023-03-26T01:55:24.892Z,0.90
2023-03-26T01:55:35.862Z,0.90
2023-03-26T01:55:46.619Z,1.00
2023-03-26T01:55:57.667Z,1.00
2023-03-26T01:56:08.627Z,0.90
2023-03-26T01:56:19.405Z,0.80
2023-03-26T01:56:30.487Z,0.80
2023-03-26T01:56:41.538Z,0.70
2023-03-26T01:56:52.363Z,1.00
2023-03-26T01:57:02.900Z,0.80
2023-03-26T01:57:13.922Z,1.00
2023-03-26T01:57:24.651Z,0.80
2023-03-26T01:57:35.698Z,1.00
2023-03-26T01:57:46.656Z,0.80
2023-03-26T01:57:57.423Z,0.80
2023-03-26T01:58:08.464Z,0.80
2023-03-26T01:58:19.454Z,0.90
2023-03-26T01:58:30.228Z,1.00
2023-03-26T01:58:41.264Z,1.10
2023-03-26T01:58:52.254Z,1.00
2023-03-26T01:59:03.014Z,1.00
2023-03-26T01:59:14.065Z,1.00
2023-03-26T01:59:25.029Z,1.00
2023-03-26T01:59:35.816Z,0.90
2023-03-26T01:59:46.863Z,1.00
2023-03-26T01:59:57.830Z,1.10
2023-03-26T02:00:08.590Z,1.00
2023-03-26T02:00:19.636Z,0.80
2023-03-26T02:00:30.607Z,0.80
2023-03-26T02:00:41.371Z,0.90
2023-03-26T02:00:52.409Z,0.90
2023-03-26T02:01:03.504Z,0.90
2023-03-26T02:01:14.262Z,1.00
2023-03-26T02:01:25.349Z,1.10
2023-03-26T02:01:36.432Z,1.20
2023-03-26T02:01:47.264Z,1.00
2023-03-26T02:01:58.331Z,1.00
2023-03-26T02:02:09.424Z,1.10
2023-03-26T02:02:20.311Z,1.00
2023-03-26T02:02:30.921Z,0.80
2023-03-26T02:02:41.539Z,0.90
2023-03-26T02:02:52.424Z,0.90
2023-03-26T02:03:02.947Z,1.00
2023-03-26T02:03:14.122Z,1.00
2023-03-26T02:03:25.085Z,0.90
2023-03-26T02:03:35.615Z,1.00
2023-03-26T02:03:46.582Z,1.10
2023-03-26T02:03:57.330Z,1.20
2023-03-26T02:04:08.363Z,1.00
2023-03-26T02:04:19.325Z,1.00
2023-03-26T02:04:30.089Z,1.00
2023-03-26T02:04:41.132Z,1.00
2023-03-26T02:04:52.103Z,1.00
2023-03-26T02:05:02.861Z,1.10
2023-03-26T02:05:13.911Z,0.90
2023-03-26T02:05:24.872Z,1.00
2023-03-26T02:05:35.638Z,0.90
2023-03-26T02:05:46.679Z,0.90
2023-03-26T02:05:57.641Z,0.90
2023-03-26T02:06:08.403Z,0.90
2023-03-26T02:06:19.454Z,0.80
2023-03-26T02:06:30.420Z,0.80
2023-03-26T02:06:41.186Z,0.80
2023-03-26T02:06:52.242Z,0.80
2023-03-26T02:07:03.198Z,1.00
2023-03-26T02:07:13.956Z,0.90
2023-03-26T02:07:25.002Z,0.70
2023-03-26T02:07:35.969Z,0.80
2023-03-26T02:07:46.731Z,0.80
2023-03-26T02:07:57.785Z,0.80
2023-03-26T02:08:08.748Z,0.80
2023-03-26T02:08:19.513Z,0.90
2023-03-26T02:08:30.575Z,0.80
2023-03-26T02:08:41.537Z,1.00
2023-03-26T02:08:52.301Z,1.10
2023-03-26T02:09:03.358Z,1.00
2023-03-26T02:09:14.333Z,0.80
2023-03-26T02:09:25.094Z,0.90
2023-03-26T02:09:36.144Z,0.90
2023-03-26T02:09:47.112Z,1.00
2023-03-26T02:09:57.866Z,0.80
2023-03-26T02:10:08.919Z,0.80
2023-03-26T02:10:19.890Z,0.90
2023-03-26T02:10:30.641Z,1.00
2023-03-26T02:10:41.687Z,1.00
2023-03-26T02:10:52.657Z,0.90
2023-03-26T02:11:03.428Z,0.90
2023-03-26T02:11:14.474Z,1.00
2023-03-26T02:11:34.686Z,0.80
2023-03-26T02:11:37.066Z,0.80
2023-03-26T02:11:47.018Z,0.90
2023-03-26T02:11:57.980Z,1.00
2023-03-26T02:12:08.746Z,0.90
2023-03-26T02:12:19.790Z,0.90
2023-03-26T02:12:30.757Z,0.90
2023-03-26T02:12:41.520Z,0.90
2023-03-26T02:12:52.579Z,0.80
2023-03-26T02:13:03.545Z,0.80
2023-03-26T02:13:14.310Z,1.00
2023-03-26T02:13:25.350Z,1.00
2023-03-26T02:13:36.331Z,1.00
2023-03-26T02:13:47.096Z,0.90
2023-03-26T02:13:58.154Z,0.90
2023-03-26T02:14:09.161Z,1.00
2023-03-26T02:14:19.924Z,1.00
2023-03-26T02:14:30.976Z,1.00
2023-03-26T02:14:41.938Z,1.10
2023-03-26T02:14:52.701Z,1.10
2023-03-26T02:15:03.744Z,1.10
2023-03-26T02:15:14.717Z,1.00
2023-03-26T02:15:25.487Z,1.00
2023-03-26T02:15:36.522Z,0.90
2023-03-26T02:15:47.554Z,0.90
2023-03-26T02:15:58.325Z,1.00
2023-03-26T02:16:09.352Z,0.90
2023-03-26T02:16:20.293Z,0.90
2023-03-26T02:16:31.122Z,0.80
2023-03-26T02:16:42.210Z,0.90
2023-03-26T02:16:53.152Z,0.90
2023-03-26T02:17:03.911Z,0.90
2023-03-26T02:17:14.958Z,0.90
2023-03-26T02:17:25.984Z,0.90
2023-03-26T02:17:36.696Z,0.90
2023-03-26T02:17:47.754Z,0.80
2023-03-26T02:17:58.720Z,0.90
2023-03-26T02:18:09.470Z,1.00
2023-03-26T02:18:20.519Z,1.00
2023-03-26T02:18:31.482Z,1.20
2023-03-26T02:18:42.266Z,1.20
2023-03-26T02:18:53.309Z,1.20
2023-03-26T02:19:04.327Z,1.00
2023-03-26T02:19:15.064Z,0.90
2023-03-26T02:19:26.112Z,0.80
2023-03-26T02:19:37.076Z,0.80
2023-03-26T02:19:47.839Z,1.00
2023-03-26T02:19:58.890Z,1.00
2023-03-26T02:20:09.894Z,0.90
2023-03-26T02:20:20.623Z,0.70
2023-03-26T02:20:31.664Z,0.80
2023-03-26T02:20:42.637Z,0.90
2023-03-26T02:20:53.400Z,0.90
2023-03-26T02:21:04.443Z,0.90
2023-03-26T02:21:15.417Z,0.90
2023-03-26T02:21:26.237Z,1.00
2023-03-26T02:21:37.241Z,0.80
2023-03-26T02:21:48.209Z,0.80
2023-03-26T02:21:58.972Z,0.90
2023-03-26T02:22:10.041Z,0.90
2023-03-26T02:22:21.010Z,1.00
2023-03-26T02:22:31.773Z,0.90
2023-03-26T02:22:42.809Z,0.90
2023-03-26T02:22:53.784Z,0.90
2023-03-26T02:23:04.543Z,0.90
2023-03-26T02:23:15.587Z,0.90
2023-03-26T02:23:26.560Z,0.80
2023-03-26T02:23:37.335Z,1.00
2023-03-26T02:23:48.393Z,0.90
2023-03-26T02:23:59.356Z,0.90
2023-03-26T02:24:10.124Z,0.70
2023-03-26T02:24:21.180Z,0.80
2023-03-26T02:24:32.141Z,0.90
2023-03-26T02:24:42.907Z,0.90
2023-03-26T02:24:53.955Z,0.90
2023-03-26T02:25:04.919Z,1.00
2023-03-26T02:25:15.684Z,1.00